Time;durP1;ratioP1;P1;durP2;ratioP2;P2;SDS_P1;SDS_P2;PMS_P1;PMS_P2;Temp;Humidity;BMP_temperature;BMP_pressure;BME280_temperature;BME280_humidity;BME280_pressure;Samples;Min_cycle;Max_cycle;Signal;HPM_P1;HPM_P2
2023/05/29 00:01:41;;;;;;;2.95;1.80;;;;;;;15.05;100.00;97723.63;1708410;75;929967;-71
2023/05/29 00:04:14;;;;;;;3.10;1.80;;;;;;;14.98;100.00;97706.84;1702327;75;740147;-69
2023/05/29 00:06:45;;;;;;;3.10;2.10;;;;;;;14.98;100.00;97715.88;1711344;75;683210;-67
2023/05/29 00:09:15;;;;;;;2.40;1.80;;;;;;;15.00;100.00;97710.63;1702409;75;754095;-68
2023/05/29 00:11:50;;;;;;;2.50;1.85;;;;;;;14.93;100.00;97705.63;1711335;75;670154;-69
2023/05/29 00:14:22;;;;;;;2.95;1.75;;;;;;;14.92;100.00;97706.88;1701285;75;760510;-74
2023/05/29 00:16:53;;;;;;;2.40;1.70;;;;;;;14.81;100.00;97707.63;1710947;75;675007;-72
2023/05/29 00:19:27;;;;;;;2.10;1.70;;;;;;;14.81;100.00;97709.66;1700796;75;814230;-69
2023/05/29 00:21:57;;;;;;;2.70;1.90;;;;;;;14.70;100.00;97700.16;1710947;75;671484;-70
2023/05/29 00:24:27;;;;;;;2.30;1.95;;;;;;;14.72;100.00;97705.16;1702536;75;752315;-70
2023/05/29 00:26:57;;;;;;;3.55;1.85;;;;;;;14.71;100.00;97711.91;1710839;75;677250;-71
2023/05/29 00:29:27;;;;;;;2.50;1.90;;;;;;;14.68;100.00;97707.41;1689274;75;1786571;-68
2023/05/29 00:31:58;;;;;;;2.55;2.15;;;;;;;14.65;100.00;97705.66;1698311;75;1820898;-70
2023/05/29 00:34:30;;;;;;;2.50;1.90;;;;;;;14.70;100.00;97699.41;1702170;75;738323;-70
2023/05/29 00:37:01;;;;;;;2.00;1.80;;;;;;;14.69;100.00;97697.88;1698514;75;1796763;-70
2023/05/29 00:39:31;;;;;;;2.70;1.80;;;;;;;14.74;100.00;97697.13;1677381;75;2874991;-68
2023/05/29 00:42:01;;;;;;;2.20;1.75;;;;;;;14.73;100.00;97708.66;1712494;75;671305;-70
2023/05/29 00:44:31;;;;;;;2.00;1.70;;;;;;;14.73;100.00;97706.66;1702551;75;743274;-69
2023/05/29 00:47:02;;;;;;;2.10;1.70;;;;;;;14.67;100.00;97703.13;1699191;75;1716255;-71
2023/05/29 00:49:35;;;;;;;1.95;1.50;;;;;;;14.69;100.00;97706.16;1689286;75;1768831;-68
2023/05/29 00:52:07;;;;;;;1.90;1.60;;;;;;;14.70;100.00;97702.16;1710973;75;678340;-69
2023/05/29 00:54:38;;;;;;;2.40;1.65;;;;;;;14.70;100.00;97702.91;1689000;75;1727382;-72
2023/05/29 00:57:09;;;;;;;2.00;1.70;;;;;;;14.70;100.00;97707.66;1709417;75;844944;-72
2023/05/29 00:59:40;;;;;;;2.80;1.80;;;;;;;14.73;100.00;97692.88;1687643;75;1930138;-70
2023/05/29 01:02:10;;;;;;;2.50;1.60;;;;;;;14.72;100.00;97699.66;1710591;75;679916;-68
2023/05/29 01:04:43;;;;;;;2.35;1.65;;;;;;;14.70;100.00;97691.88;1689588;75;1729557;-69
2023/05/29 01:07:14;;;;;;;2.50;1.60;;;;;;;14.67;100.00;97698.41;1710993;75;683396;-72
2023/05/29 01:09:45;;;;;;;1.95;1.60;;;;;;;14.72;100.00;97698.88;1702189;75;736432;-73
2023/05/29 01:12:34;;;;;;;2.60;1.80;;;;;;;14.65;100.00;97700.16;1707388;75;996363;-71
2023/05/29 01:15:21;;;;;;;2.85;2.05;;;;;;;14.67;100.00;97703.91;1702133;75;746667;-68
2023/05/29 01:18:22;;;;;;;2.90;2.00;;;;;;;14.67;100.00;97700.38;1703507;75;685154;-72
2023/05/29 01:21:03;;;;;;;1.90;1.50;;;;;;;14.68;100.00;97701.91;1703427;75;680906;-70
2023/05/29 01:24:04;;;;;;;2.45;1.80;;;;;;;14.61;100.00;97700.41;1711039;75;674916;-72
2023/05/29 01:26:57;;;;;;;2.85;1.50;;;;;;;14.58;100.00;97697.91;1702542;75;731141;-69
2023/05/29 01:29:31;;;;;;;2.10;1.80;;;;;;;14.47;100.00;97695.88;1703148;75;689746;-69
2023/05/29 01:32:02;;;;;;;2.30;1.50;;;;;;;14.47;100.00;97702.13;1699048;75;1737023;-71
2023/05/29 01:34:33;;;;;;;2.40;2.00;;;;;;;14.46;100.00;97697.88;1703484;75;682070;-70
2023/05/29 01:37:03;;;;;;;2.70;2.10;;;;;;;14.39;100.00;97694.88;1710948;75;676891;-69
2023/05/29 01:39:35;;;;;;;1.80;1.70;;;;;;;14.32;100.00;97693.38;1700644;75;959690;-70
2023/05/29 01:42:09;;;;;;;2.80;1.90;;;;;;;14.19;100.00;97684.84;1711797;75;674365;-69
2023/05/29 01:44:41;;;;;;;3.70;2.00;;;;;;;14.17;100.00;97688.09;1702671;75;744040;-69
2023/05/29 01:47:11;;;;;;;1.90;1.60;;;;;;;14.11;100.00;97692.84;1685113;75;2838237;-72
2023/05/29 01:49:42;;;;;;;1.80;1.55;;;;;;;13.98;100.00;97676.81;1702893;75;733590;-70
2023/05/29 01:52:13;;;;;;;4.80;1.95;;;;;;;13.95;100.00;97683.31;1711622;75;670993;-72
2023/05/29 01:54:44;;;;;;;3.30;2.20;;;;;;;13.92;100.00;97680.81;1702608;75;764215;-72
2023/05/29 01:57:17;;;;;;;2.40;1.80;;;;;;;13.85;100.00;97682.81;1710823;75;672737;-68
2023/05/29 01:59:47;;;;;;;2.00;1.65;;;;;;;13.87;100.00;97679.53;1702272;75;751474;-69
2023/05/29 02:02:18;;;;;;;1.90;1.50;;;;;;;13.81;100.00;97676.78;1710806;75;673980;-68
2023/05/29 02:04:48;;;;;;;2.20;1.60;;;;;;;13.70;100.00;97674.00;1651142;75;4964675;-68
2023/05/29 02:07:18;;;;;;;2.00;1.55;;;;;;;13.57;100.00;97671.72;1710796;75;681499;-70
2023/05/29 02:09:48;;;;;;;3.50;1.60;;;;;;;13.54;100.00;97664.47;1699895;75;896714;-70
2023/05/29 02:12:21;;;;;;;2.30;1.80;;;;;;;13.40;100.00;97668.16;1710723;75;719844;-70
2023/05/29 02:14:51;;;;;;;2.55;1.90;;;;;;;13.39;100.00;97667.41;1702677;75;738654;-69
2023/05/29 02:17:22;;;;;;;2.60;1.80;;;;;;;13.39;100.00;97669.41;1711563;75;694259;-70
2023/05/29 02:19:52;;;;;;;1.75;1.50;;;;;;;13.36;100.00;97667.66;1702085;75;750192;-73
2023/05/29 02:22:22;;;;;;;2.40;1.80;;;;;;;13.23;100.00;97662.56;1708459;75;925397;-70
2023/05/29 02:24:52;;;;;;;2.25;1.70;;;;;;;13.29;100.00;97663.38;1702014;75;751824;-69
2023/05/29 02:27:25;;;;;;;2.00;1.50;;;;;;;13.17;100.00;97667.28;1711145;75;693322;-70
2023/05/29 02:29:55;;;;;;;2.10;1.70;;;;;;;13.12;100.00;97673.50;1677439;75;2779034;-70
2023/05/29 02:32:26;;;;;;;2.65;2.20;;;;;;;12.98;100.00;97675.19;1711443;75;672104;-73
2023/05/29 02:34:57;;;;;;;2.50;2.05;;;;;;;12.94;100.00;97671.91;1702188;75;740652;-69
2023/05/29 02:37:27;;;;;;;2.95;2.15;;;;;;;12.95;100.00;97678.91;1711454;75;703114;-68
2023/05/29 02:39:57;;;;;;;3.10;2.15;;;;;;;12.87;100.00;97670.38;1689208;75;1785787;-70
2023/05/29 02:42:30;;;;;;;3.00;2.30;;;;;;;12.75;100.00;97669.56;1711152;75;676258;-69
2023/05/29 02:45:00;;;;;;;2.65;2.00;;;;;;;12.79;100.00;97667.34;1702782;75;720533;-70
2023/05/29 02:47:30;;;;;;;2.70;2.10;;;;;;;12.74;100.00;97670.78;1710664;75;677810;-70
2023/05/29 02:50:00;;;;;;;2.20;1.95;;;;;;;12.71;100.00;97673.78;1702977;75;739880;-68
2023/05/29 02:52:30;;;;;;;2.05;1.85;;;;;;;12.68;100.00;97681.00;1711189;75;670768;-71
2023/05/29 02:55:01;;;;;;;2.00;1.65;;;;;;;12.65;100.00;97679.25;1702638;75;726779;-71
2023/05/29 02:57:34;;;;;;;2.25;2.05;;;;;;;12.53;100.00;97677.63;1711101;75;669841;-70
2023/05/29 03:00:07;;;;;;;2.40;1.90;;;;;;;12.41;100.00;97679.56;1686675;75;1987129;-71
2023/05/29 03:02:38;;;;;;;3.00;2.30;;;;;;;12.53;100.00;97677.63;1710770;75;681639;-69
2023/05/29 03:05:09;;;;;;;2.35;1.80;;;;;;;12.48;100.00;97686.59;1700318;75;809050;-70
2023/05/29 03:07:39;;;;;;;2.40;2.00;;;;;;;12.35;100.00;97682.25;1710525;75;673368;-70
2023/05/29 03:10:11;;;;;;;2.40;1.80;;;;;;;12.40;100.00;97680.78;1701630;75;755984;-69
2023/05/29 03:12:43;;;;;;;3.70;1.90;;;;;;;12.34;100.00;97686.25;1711022;75;670848;-68
2023/05/29 03:15:14;;;;;;;2.20;1.80;;;;;;;12.27;100.00;97681.19;1699190;75;871631;-68
2023/05/29 03:17:44;;;;;;;2.70;1.90;;;;;;;12.26;100.00;97685.16;1710267;75;694596;-69
2023/05/29 03:20:16;;;;;;;2.15;1.75;;;;;;;12.18;100.00;97691.59;1702101;75;726680;-69
2023/05/29 03:22:46;;;;;;;3.05;2.00;;;;;;;12.22;100.00;97683.88;1710723;75;677232;-67
2023/05/29 03:25:17;;;;;;;3.85;2.25;;;;;;;12.10;100.00;97685.78;1703002;75;722306;-68
2023/05/29 03:27:50;;;;;;;3.20;2.40;;;;;;;12.11;100.00;97690.78;1711374;75;669399;-67
2023/05/29 03:30:21;;;;;;;2.85;2.20;;;;;;;12.20;100.00;97691.88;1701700;75;750203;-68
2023/05/29 03:32:51;;;;;;;2.45;2.10;;;;;;;12.17;100.00;97693.59;1710394;75;717139;-70
2023/05/29 03:35:21;;;;;;;1.70;1.55;;;;;;;12.19;100.00;97691.09;1702984;75;728226;-67
2023/05/29 03:37:51;;;;;;;3.15;2.15;;;;;;;12.16;100.00;97689.31;1711645;75;679871;-73
2023/05/29 03:40:22;;;;;;;4.90;2.20;;;;;;;12.15;100.00;97679.59;1700419;75;842038;-74
2023/05/29 03:42:55;;;;;;;2.20;1.75;;;;;;;12.15;100.00;97687.84;1711000;75;669976;-69
2023/05/29 03:45:25;;;;;;;1.85;1.60;;;;;;;12.16;100.00;97689.31;1701979;75;744149;-74
2023/05/29 03:47:56;;;;;;;2.30;1.90;;;;;;;12.21;100.00;97687.88;1711132;75;673108;-70
2023/05/29 03:50:26;;;;;;;2.10;1.65;;;;;;;12.20;100.00;97686.38;1702198;75;754741;-70
2023/05/29 03:52:57;;;;;;;2.75;1.75;;;;;;;12.14;100.00;97694.53;1711453;75;674854;-69
2023/05/29 03:55:29;;;;;;;2.30;1.95;;;;;;;12.17;100.00;97690.06;1702274;75;738345;-69
2023/05/29 03:58:02;;;;;;;1.90;1.70;;;;;;;12.13;100.00;97693.78;1710308;75;677072;-70
2023/05/29 04:00:32;;;;;;;2.20;2.00;;;;;;;12.13;100.00;97688.31;1701705;75;737681;-69
2023/05/29 04:03:03;;;;;;;1.80;1.55;;;;;;;12.17;100.00;97698.31;1710177;75;730000;-71
2023/05/29 04:05:33;;;;;;;2.25;1.70;;;;;;;12.18;100.00;97706.06;1701945;75;739680;-73
2023/05/29 04:08:04;;;;;;;2.15;1.70;;;;;;;12.25;100.00;97702.13;1708606;75;887640;-67
2023/05/29 04:10:35;;;;;;;2.35;2.00;;;;;;;12.23;100.00;97697.13;1689805;75;1704472;-68
2023/05/29 04:13:11;;;;;;;3.30;2.70;;;;;;;12.26;100.00;97698.88;1707219;75;931904;-69
2023/05/29 04:15:41;;;;;;;2.75;2.45;;;;;;;12.27;100.00;97700.41;1701809;75;748248;-71
2023/05/29 04:18:11;;;;;;;2.60;2.30;;;;;;;12.34;100.00;97702.72;1685583;75;2816154;-72
2023/05/29 04:20:42;;;;;;;3.00;2.50;;;;;;;12.35;100.00;97701.47;1701800;75;741815;-71
2023/05/29 04:23:12;;;;;;;2.40;2.20;;;;;;;12.41;100.00;97696.03;1710837;75;676506;-69
2023/05/29 04:25:43;;;;;;;3.30;2.35;;;;;;;12.47;100.00;97698.81;1701833;75;753725;-70
2023/05/29 04:28:16;;;;;;;2.30;2.00;;;;;;;12.49;100.00;97693.59;1710707;75;680393;-72
2023/05/29 04:30:47;;;;;;;3.30;2.35;;;;;;;12.50;100.00;97711.56;1701466;75;753257;-70
2023/05/29 04:33:17;;;;;;;4.90;2.10;;;;;;;12.60;100.00;97706.66;1710906;75;678060;-69
2023/05/29 04:35:48;;;;;;;2.30;2.10;;;;;;;12.68;100.00;97710.47;1698777;75;963389;-69
2023/05/29 04:38:19;;;;;;;2.70;2.35;;;;;;;12.73;100.00;97718.75;1711806;75;675497;-69
2023/05/29 04:40:50;;;;;;;3.70;2.95;;;;;;;12.82;100.00;97722.53;1688784;75;1861914;-69
2023/05/29 04:43:23;;;;;;;2.55;2.10;;;;;;;12.92;100.00;97726.63;1708481;75;951044;-69
2023/05/29 04:45:53;;;;;;;3.70;3.00;;;;;;;12.96;100.00;97724.38;1676263;75;2910501;-68
2023/05/29 04:48:23;;;;;;;2.40;2.20;;;;;;;13.06;100.00;97724.94;1711750;75;683315;-69
2023/05/29 04:50:53;;;;;;;2.85;2.35;;;;;;;13.05;100.00;97732.44;1702281;75;747870;-71
2023/05/29 04:53:23;;;;;;;3.45;2.25;;;;;;;13.15;100.00;97733.72;1710069;75;729622;-69
2023/05/29 04:55:55;;;;;;;3.65;2.60;;;;;;;13.17;100.00;97738.75;1701731;75;754060;-72
2023/05/29 04:58:29;;;;;;;3.40;2.50;;;;;;;13.31;100.00;97734.38;1711126;75;670349;-69
2023/05/29 05:01:00;;;;;;;3.60;2.60;;;;;;;13.45;100.00;97738.19;1702133;75;745417;-68
2023/05/29 05:03:30;;;;;;;4.70;3.50;;;;;;;13.48;100.00;97735.19;1710367;75;697099;-74
2023/05/29 05:06:02;;;;;;;2.80;2.25;;;;;;;13.54;100.00;97735.97;1701393;75;753573;-76
2023/05/29 05:08:32;;;;;;;3.10;2.40;;;;;;;13.72;100.00;97745.78;1710627;75;678322;-70
2023/05/29 05:11:04;;;;;;;9.85;6.65;;;;;;;13.84;100.00;97743.81;1701806;75;745167;-67
2023/05/29 05:13:37;;;;;;;9.90;7.00;;;;;;;13.97;100.00;97740.59;1707500;75;927186;-70
2023/05/29 05:16:08;;;;;;;10.30;7.40;;;;;;;13.99;100.00;97738.13;1701381;75;747507;-67
2023/05/29 05:18:39;;;;;;;9.65;7.30;;;;;;;14.23;100.00;97737.66;1710338;75;673192;-69
2023/05/29 05:21:10;;;;;;;12.05;7.35;;;;;;;14.26;100.00;97740.19;1700636;75;749340;-71
2023/05/29 05:23:40;;;;;;;9.80;7.20;;;;;;;14.40;100.00;97737.69;1710173;75;675419;-72
2023/05/29 05:26:10;;;;;;;10.10;6.60;;;;;;;14.53;100.00;97739.94;1674122;75;2947274;-68
2023/05/29 05:28:43;;;;;;;13.60;7.85;;;;;;;14.45;100.00;97743.19;1698622;75;1754048;-69
2023/05/29 05:31:13;;;;;;;10.75;7.70;;;;;;;14.62;100.00;97742.47;1699868;75;808372;-70
2023/05/29 05:33:44;;;;;;;8.50;7.10;;;;;;;14.73;100.00;97744.50;1706915;75;981863;-72
2023/05/29 05:36:15;;;;;;;12.00;7.75;;;;;;;14.70;100.00;97749.75;1699589;75;837350;-68
2023/05/29 05:38:45;;;;;;;10.25;6.75;;;;;;;14.89;100.00;97740.97;1710782;75;680352;-68
2023/05/29 05:41:15;;;;;;;12.30;7.75;;;;;;;14.81;100.00;97751.72;1701230;75;742621;-69
2023/05/29 05:43:48;;;;;;;8.30;6.55;;;;;;;15.00;100.00;97751.97;1710413;75;684639;-70
2023/05/29 05:46:18;;;;;;;6.30;4.90;;;;;;;15.32;100.00;97749.66;1698000;75;981195;-69
2023/05/29 05:48:49;;;;;;;8.85;7.30;;;;;;;15.27;100.00;97747.66;1695674;75;1939458;-69
2023/05/29 05:51:19;;;;;;;10.50;6.60;;;;;;;15.53;100.00;97755.59;1701974;75;739762;-71
2023/05/29 05:53:49;;;;;;;10.10;6.60;;;;;;;15.45;100.00;97749.13;1698533;75;1729851;-69
2023/05/29 05:56:19;;;;;;;6.60;5.30;;;;;;;15.71;100.00;97751.56;1698720;75;873794;-69
2023/05/29 05:58:52;;;;;;;7.35;4.80;;;;;;;15.90;100.00;97750.97;1710822;75;669447;-67
2023/05/29 06:01:23;;;;;;;7.00;5.30;;;;;;;16.09;100.00;97748.34;1701889;75;736078;-72
2023/05/29 06:03:53;;;;;;;8.40;5.50;;;;;;;16.17;100.00;97752.09;1710935;75;672042;-70
2023/05/29 06:06:23;;;;;;;7.00;4.90;;;;;;;16.19;100.00;97755.84;1700771;75;765141;-68
2023/05/29 06:08:53;;;;;;;4.70;3.90;;;;;;;16.40;100.00;97758.19;1710735;75;677188;-72
2023/05/29 06:11:25;;;;;;;9.15;6.65;;;;;;;16.19;100.00;97758.59;1702184;75;741617;-69
2023/05/29 06:13:58;;;;;;;11.80;6.80;;;;;;;16.30;100.00;97755.00;1710720;75;714091;-72
2023/05/29 06:16:28;;;;;;;8.10;6.10;;;;;;;16.12;100.00;97759.13;1699032;75;947033;-70
2023/05/29 06:18:58;;;;;;;7.20;5.20;;;;;;;16.48;100.00;97750.88;1710010;75;706543;-71
2023/05/29 06:21:28;;;;;;;11.60;6.90;;;;;;;16.28;100.00;97754.00;1701588;75;743325;-72
2023/05/29 06:23:58;;;;;;;8.85;5.65;;;;;;;16.74;100.00;97757.94;1710463;75;670059;-74
2023/05/29 06:26:29;;;;;;;9.70;6.40;;;;;;;16.83;100.00;97752.84;1699250;75;890904;-75
2023/05/29 06:29:02;;;;;;;9.60;6.10;;;;;;;16.72;100.00;97755.72;1711165;75;676821;-67
2023/05/29 06:31:33;;;;;;;13.55;8.10;;;;;;;16.96;100.00;97757.78;1701614;75;756523;-67
2023/05/29 06:34:03;;;;;;;13.10;10.00;;;;;;;17.31;100.00;97761.72;1711155;75;670340;-68
2023/05/29 06:36:34;;;;;;;9.15;6.20;;;;;;;17.44;100.00;97752.78;1702064;75;736208;-69
2023/05/29 06:39:04;;;;;;;9.20;5.40;;;;;;;17.61;99.35;97758.13;1711223;75;672369;-71
2023/05/29 06:41:35;;;;;;;11.80;6.25;;;;;;;17.56;98.09;97758.97;1702413;75;742190;-68
2023/05/29 06:44:07;;;;;;;9.60;6.85;;;;;;;17.52;100.00;97761.25;1707683;75;954200;-70
2023/05/29 06:46:38;;;;;;;14.60;9.70;;;;;;;17.86;96.42;97767.16;1700045;75;892432;-68
2023/05/29 06:49:08;;;;;;;10.80;6.55;;;;;;;17.85;94.71;97766.41;1710488;75;682307;-70
2023/05/29 06:51:38;;;;;;;8.75;5.70;;;;;;;18.09;96.15;97770.41;1702669;75;739555;-74
2023/05/29 06:54:09;;;;;;;5.40;4.30;;;;;;;18.19;93.94;97765.22;1696411;75;1860696;-69
2023/05/29 06:56:39;;;;;;;10.15;6.15;;;;;;;18.16;86.97;97769.03;1701896;75;747633;-72
2023/05/29 06:59:12;;;;;;;7.50;5.60;;;;;;;18.28;88.15;97762.09;1710870;75;673854;-70
2023/05/29 07:01:42;;;;;;;7.10;5.40;;;;;;;18.44;85.76;97771.41;1664623;75;3823381;-72
2023/05/29 07:04:14;;;;;;;8.80;6.25;;;;;;;18.45;84.80;97768.13;1710113;75;708622;-71
2023/05/29 07:06:44;;;;;;;6.75;4.95;;;;;;;18.77;81.23;97761.13;1701770;75;784511;-72
2023/05/29 07:09:14;;;;;;;7.00;4.80;;;;;;;18.79;79.13;97759.31;1708152;75;895851;-72
2023/05/29 07:11:45;;;;;;;7.05;5.00;;;;;;;18.64;80.73;97765.31;1701059;75;791423;-68
2023/05/29 07:14:17;;;;;;;9.10;6.10;;;;;;;19.05;78.91;97752.31;1707820;75;965031;-70
2023/05/29 07:16:48;;;;;;;9.15;5.70;;;;;;;19.06;77.67;97760.09;1701625;75;728768;-69
2023/05/29 07:19:18;;;;;;;9.80;5.80;;;;;;;19.15;76.72;97765.25;1710776;75;670119;-71
2023/05/29 07:21:48;;;;;;;6.75;4.85;;;;;;;19.15;74.54;97768.00;1701361;75;725762;-72
2023/05/29 07:24:18;;;;;;;6.15;4.45;;;;;;;19.31;74.14;97765.47;1710169;75;683541;-71
2023/05/29 07:26:49;;;;;;;7.35;4.85;;;;;;;19.24;72.38;97760.53;1701576;75;740071;-70
2023/05/29 07:29:23;;;;;;;7.60;4.50;;;;;;;19.47;73.70;97769.22;1710791;75;680781;-72
2023/05/29 07:31:53;;;;;;;8.75;4.70;;;;;;;19.47;72.34;97767.19;1689227;75;1797143;-68
2023/05/29 07:34:23;;;;;;;6.50;4.90;;;;;;;19.54;72.05;97760.25;1711441;75;671895;-73
2023/05/29 07:37:06;;;;;;;9.20;5.10;;;;;;;19.58;72.86;97769.00;1700881;75;798470;-71
2023/05/29 07:39:38;;;;;;;8.10;4.60;;;;;;;19.70;69.05;97767.53;1702012;75;681070;-69
2023/05/29 07:42:09;;;;;;;9.00;5.70;;;;;;;19.66;66.13;97769.84;1710658;75;678052;-67
2023/05/29 07:44:42;;;;;;;7.30;4.20;;;;;;;19.85;63.57;97766.97;1702413;75;676101;-70
2023/05/29 07:47:12;;;;;;;6.50;4.30;;;;;;;19.99;65.67;97762.88;1707498;75;975258;-68
2023/05/29 07:49:43;;;;;;;6.70;4.65;;;;;;;20.09;62.06;97768.00;1702267;75;675243;-70
2023/05/29 07:52:13;;;;;;;6.85;3.95;;;;;;;20.04;63.26;97766.09;1707078;75;923292;-69
2023/05/29 07:54:43;;;;;;;9.10;5.60;;;;;;;20.17;63.29;97758.44;1701248;75;814618;-69
2023/05/29 07:57:13;;;;;;;16.50;10.50;;;;;;;20.38;61.52;97757.75;1708873;75;855483;-70
2023/05/29 07:59:49;;;;;;;9.05;5.60;;;;;;;20.48;61.17;97755.25;1702358;75;692729;-71
2023/05/29 08:02:19;;;;;;;6.80;4.50;;;;;;;20.47;60.97;97768.41;1710842;75;685450;-71
2023/05/29 08:04:50;;;;;;;8.30;4.30;;;;;;;20.55;62.69;97762.91;1701286;75;725217;-70
2023/05/29 08:07:20;;;;;;;6.50;4.30;;;;;;;20.64;63.56;97752.09;1710350;75;672390;-69
2023/05/29 08:09:50;;;;;;;6.80;4.40;;;;;;;20.95;62.07;97759.94;1687708;75;1863038;-69
2023/05/29 08:12:20;;;;;;;10.30;4.70;;;;;;;20.87;61.14;97764.72;1710073;75;694003;-71
2023/05/29 08:14:53;;;;;;;5.80;4.30;;;;;;;20.94;60.54;97756.41;1701694;75;686449;-70
2023/05/29 08:17:24;;;;;;;6.15;4.30;;;;;;;21.12;60.86;97754.72;1710346;75;685255;-69
2023/05/29 08:19:54;;;;;;;6.40;4.10;;;;;;;21.27;58.86;97771.50;1701469;75;755274;-72
2023/05/29 08:22:25;;;;;;;6.15;4.10;;;;;;;21.50;59.80;97754.22;1711055;75;674755;-67
2023/05/29 08:24:55;;;;;;;7.10;3.70;;;;;;;21.40;57.50;97756.03;1700522;75;828750;-70
2023/05/29 08:27:25;;;;;;;6.35;4.15;;;;;;;21.52;57.52;97757.19;1710821;75;673667;-68
2023/05/29 08:29:58;;;;;;;7.10;4.90;;;;;;;21.87;58.08;97755.72;1699201;75;872664;-68
2023/05/29 08:32:29;;;;;;;9.70;5.00;;;;;;;21.50;56.83;97762.56;1710667;75;676407;-70
2023/05/29 08:34:59;;;;;;;5.40;3.75;;;;;;;21.76;56.99;97761.59;1701766;75;730240;-74
2023/05/29 08:37:29;;;;;;;4.60;3.45;;;;;;;21.85;56.48;97752.72;1708907;75;800233;-71
2023/05/29 08:39:59;;;;;;;7.15;4.85;;;;;;;21.12;56.73;97756.72;1701578;75;777761;-70
2023/05/29 08:42:35;;;;;;;7.10;4.20;;;;;;;21.65;56.90;97756.38;1710623;75;677105;-72
2023/05/29 08:45:12;;;;;;;7.05;3.90;;;;;;;21.91;56.81;97747.75;1701414;75;750170;-68
2023/05/29 08:47:44;;;;;;;9.60;4.50;;;;;;;21.66;55.41;97747.44;1701906;75;684552;-72
2023/05/29 08:50:16;;;;;;;8.10;4.50;;;;;;;21.80;56.34;97741.75;1710275;75;696298;-70
2023/05/29 08:52:46;;;;;;;;;;;;;;;21.75;55.78;97739.88;1699276;75;979619;-68
2023/05/29 08:55:17;;;;;;;8.45;4.45;;;;;;;21.80;55.23;97738.97;1710384;75;713404;-72
2023/05/29 08:57:48;;;;;;;6.50;4.10;;;;;;;21.63;55.67;97745.75;1701944;75;678049;-72
2023/05/29 09:00:28;;;;;;;7.50;4.50;;;;;;;21.55;57.16;97744.22;1710242;75;687420;-69
2023/05/29 09:02:59;;;;;;;8.90;4.35;;;;;;;21.85;56.03;97736.00;1701748;75;683767;-72
2023/05/29 09:05:29;;;;;;;6.25;4.55;;;;;;;21.88;55.66;97734.16;1710479;75;677534;-69
2023/05/29 09:08:00;;;;;;;7.30;3.90;;;;;;;21.98;55.57;97728.81;1701755;75;690508;-71
2023/05/29 09:10:30;;;;;;;5.75;3.65;;;;;;;22.06;55.91;97735.91;1708277;75;839878;-70
2023/05/29 09:13:00;;;;;;;7.10;4.20;;;;;;;22.36;56.31;97726.13;1702311;75;676196;-67
2023/05/29 09:15:34;;;;;;;8.60;4.10;;;;;;;22.35;55.80;97721.88;1710959;75;669049;-69
2023/05/29 09:18:04;;;;;;;8.20;5.05;;;;;;;22.25;54.29;97729.28;1702621;75;687889;-69
2023/05/29 09:20:34;;;;;;;5.80;3.90;;;;;;;22.43;54.62;97736.56;1710282;75;675205;-66
2023/05/29 09:23:07;;;;;;;6.55;4.60;;;;;;;22.32;54.49;97742.47;1702708;75;673249;-72
2023/05/29 09:25:45;;;;;;;6.50;4.00;;;;;;;22.51;53.45;97740.13;1710751;75;677662;-70
2023/05/29 09:28:15;;;;;;;6.30;4.10;;;;;;;22.84;53.31;97731.22;1701720;75;736676;-69
2023/05/29 09:30:50;;;;;;;9.75;7.70;;;;;;;23.16;54.08;97725.06;1707593;75;926691;-72
2023/05/29 09:33:20;;;;;;;7.55;4.55;;;;;;;22.89;54.61;97739.38;1702339;75;730136;-71
2023/05/29 09:35:52;;;;;;;7.00;3.80;;;;;;;22.76;53.31;97734.75;1711674;75;674069;-71
2023/05/29 09:38:23;;;;;;;6.05;3.80;;;;;;;23.12;54.39;97733.81;1702096;75;747697;-72
2023/05/29 09:40:58;;;;;;;6.00;4.70;;;;;;;23.27;52.64;97721.88;1711119;75;682102;-75
2023/05/29 09:43:28;;;;;;;6.00;4.00;;;;;;;23.17;51.42;97724.50;1700968;75;835266;-69
2023/05/29 09:46:04;;;;;;;6.95;4.15;;;;;;;23.15;52.12;97721.53;1711498;75;679732;-71
2023/05/29 09:48:34;;;;;;;5.90;3.90;;;;;;;23.26;51.68;97723.19;1675218;75;2988518;-73
2023/05/29 09:51:07;;;;;;;5.40;4.20;;;;;;;23.16;51.38;97716.69;1711305;75;699561;-72
2023/05/29 09:53:43;;;;;;;7.90;5.10;;;;;;;22.88;52.32;97721.16;1702448;75;737234;-69
2023/05/29 09:56:15;;;;;;;5.85;4.15;;;;;;;22.76;51.44;97726.38;1703264;75;681722;-74
2023/05/29 09:58:47;;;;;;;4.80;3.80;;;;;;;22.74;52.71;97723.38;1710866;75;674055;-69
2023/05/29 10:01:21;;;;;;;7.60;4.50;;;;;;;22.65;52.46;97726.00;1689177;75;1843785;-69
2023/05/29 10:03:51;;;;;;;8.00;5.20;;;;;;;22.68;52.54;97722.84;1707182;75;966681;-72
2023/05/29 10:06:23;;;;;;;7.70;4.30;;;;;;;23.04;51.26;97710.75;1702267;75;695543;-74
2023/05/29 10:08:55;;;;;;;6.80;4.00;;;;;;;23.15;51.24;97712.41;1710614;75;681135;-70
2023/05/29 10:11:27;;;;;;;6.60;4.30;;;;;;;22.99;51.07;97719.31;1701671;75;810524;-71
2023/05/29 10:14:00;;;;;;;6.10;3.80;;;;;;;22.94;50.76;97699.38;1710455;75;674138;-69
2023/05/29 10:16:36;;;;;;;7.00;3.60;;;;;;;23.44;50.41;97712.91;1702646;75;681719;-74
2023/05/29 10:19:11;;;;;;;8.40;4.20;;;;;;;23.53;50.99;97706.72;1710071;75;776127;-70
2023/05/29 10:21:44;;;;;;;7.15;3.80;;;;;;;23.48;49.09;97709.72;1702391;75;734766;-69
2023/05/29 10:24:16;;;;;;;7.40;4.10;;;;;;;23.32;48.95;97695.06;1710308;75;698786;-70
2023/05/29 10:26:50;;;;;;;7.35;4.35;;;;;;;22.96;49.59;97693.97;1700028;75;836288;-70
2023/05/29 10:29:38;;;;;;;8.20;4.10;;;;;;;23.67;50.86;97698.09;1710885;75;676899;-71
2023/05/29 10:32:26;;;;;;;5.90;3.90;;;;;;;23.30;49.40;97694.88;1699648;75;904184;-73
2023/05/29 10:35:09;;;;;;;6.70;4.60;;;;;;;23.48;49.35;97699.28;1702526;75;676404;-70
2023/05/29 10:37:45;;;;;;;6.30;4.00;;;;;;;23.70;49.54;97694.19;1707198;75;990505;-69
2023/05/29 10:40:16;;;;;;;6.10;4.00;;;;;;;23.69;48.39;97687.88;1701903;75;735184;-68
2023/05/29 10:42:49;;;;;;;5.80;3.80;;;;;;;24.10;49.99;97693.44;1710372;75;673313;-72
2023/05/29 10:45:53;;;;;;;7.95;3.90;;;;;;;24.03;47.16;97686.59;1701369;75;742732;-73
2023/05/29 10:48:53;;;;;;;6.40;4.00;;;;;;;23.90;47.05;97686.84;1701390;75;729804;-72
2023/05/29 10:51:32;;;;;;;6.50;5.10;;;;;;;23.82;47.28;97692.47;1702505;75;680607;-73
2023/05/29 10:54:03;;;;;;;7.50;4.90;;;;;;;23.97;47.32;97689.59;1699141;75;963695;-74
2023/05/29 10:56:34;;;;;;;8.70;6.60;;;;;;;24.24;47.30;97683.47;1710737;75;676609;-72
2023/05/29 10:59:04;;;;;;;6.90;5.10;;;;;;;24.47;45.78;97677.03;1702717;75;673587;-72
2023/05/29 11:01:36;;;;;;;7.40;4.90;;;;;;;23.66;46.74;97679.84;1710954;75;675982;-71
2023/05/29 11:04:34;;;;;;;6.00;4.20;;;;;;;24.50;46.55;97692.66;1702654;75;674946;-74
2023/05/29 11:07:06;;;;;;;;;;;;;;;24.35;43.54;97682.28;1703035;75;687989;-74
2023/05/29 11:09:39;;;;;;;4.90;3.70;;;;;;;24.37;44.72;97676.88;1710860;75;677810;-72
2023/05/29 11:12:25;;;;;;;5.15;3.30;;;;;;;24.56;44.84;97682.72;1702684;75;676966;-69
2023/05/29 11:15:06;;;;;;;7.40;4.80;;;;;;;24.59;44.57;97689.25;1711027;75;684133;-72
2023/05/29 11:17:48;;;;;;;7.90;5.50;;;;;;;24.81;43.63;97687.56;1702004;75;718611;-73
2023/05/29 11:20:36;;;;;;;6.30;4.80;;;;;;;24.59;41.66;97675.25;1702648;75;678920;-72
2023/05/29 11:23:12;;;;;;;5.00;3.90;;;;;;;24.96;42.39;97676.19;1710721;75;677604;-74
2023/05/29 11:25:43;;;;;;;11.35;6.15;;;;;;;25.07;41.09;97675.00;1702109;75;724500;-72
2023/05/29 11:28:14;;;;;;;7.20;5.40;;;;;;;25.26;41.23;97666.78;1710416;75;684025;-75
2023/05/29 11:30:49;;;;;;;5.20;4.30;;;;;;;25.40;41.38;97667.19;1699284;75;842144;-70
2023/05/29 11:33:28;;;;;;;10.30;6.60;;;;;;;23.83;41.54;97670.84;1706875;75;676595;-73
2023/05/29 11:36:03;;;;;;;5.60;4.20;;;;;;;24.92;41.52;97667.50;1710869;75;673736;-72
2023/05/29 11:38:34;;;;;;;6.80;4.30;;;;;;;24.93;41.33;97668.97;1702263;75;677677;-70
2023/05/29 11:41:06;;;;;;;7.15;3.45;;;;;;;25.18;41.78;97659.78;1710509;75;722605;-69
2023/05/29 11:43:36;;;;;;;5.70;3.80;;;;;;;25.18;40.98;97663.31;1688748;67;1865114;-70